CYMX/YMX METAR and TAF weather

Enter ICAO airport designator
Station Type Date Time Source
CYMX METAR 2020/02/25 00:00 UTC NOAA

CYMX 250000Z 20005KT 25SM SCT220 03/M02 A2990 RMK CI3 SLP132


Station Type Date Time Source
CYMX Decoded METAR 2020/02/25 00:00 UTC NOAA

Montreal / Mirabel, Canada (CYMX) 45-41N 074-02W
Feb 24, 2020 - 07:00 PM EST / 2020.02.25 0000 UTC
Wind: from the SSW (200 degrees) at 6 MPH (5 KT):0
Visibility: 25 mile(s):0
Sky conditions: partly cloudy
Temperature: 37 F (3 C)
Dew Point: 28 F (-2 C)
Relative Humidity: 69%
Pressure (altimeter): 29.9 in. Hg (1012 hPa)
ob: CYMX 250000Z 20005KT 25SM SCT220 03/M02 A2990 RMK CI3 SLP132
cycle: 0

Station Type Date Time Source
CYMX TAF 2020/02/24 18:42 UTC NOAA

TAF CYMX 241738Z 2418/2518 24012KT P6SM SKC
FM250100 VRB03KT P6SM FEW030 SCT200
FM250900 01005KT P6SM FEW040 BKN120
BECMG 2514/2516 04005KT
RMK NXT FCST BY 250000Z

Example: see airport list